Terminal Aerodrome Forecast
Issued by NWS

Home | Current Version | Previous Version | Text Only | Print | Product List | Glossary On
Versions: 1 2 3 4 5 6 7 8 9 10 11 12 13 14
000
FTUS41 KCAR 230521
TAFFVE
TAF
KFVE 230521Z 2306/2406 VRB03KT P6SM OVC050
     FM230700 11011G20KT 1/2SM SN OVC008
     FM231900 11011G20KT 1/2SM SNPL OVC003
     FM232000 11010G19KT 1/2SM FZRASNPL OVC003
     FM232300 10009KT 3SM FZRAPL OVC003
     FM240300 VRB02KT 3SM -FZRAPL OVC008
     FM240500 VRB02KT 1SM -FZRASN OVC003=

USA.gov is the U.S. government's official web portal to all federal, state and local government web resources and services.